createdAt,value
2022-10-29T00:02:32.692Z,320
2022-10-29T00:02:55.356Z,318
2022-10-29T00:03:26.577Z,310
2022-10-29T00:03:56.859Z,286
2022-10-29T00:04:28.261Z,307
2022-10-29T00:05:00.330Z,293
2022-10-29T00:05:31.401Z,321
2022-10-29T00:06:20.311Z,329
2022-10-29T00:06:32.424Z,329
2022-10-29T00:07:02.769Z,306
2022-10-29T00:07:34.057Z,311
2022-10-29T00:08:05.278Z,316
2022-10-29T00:08:46.043Z,314
2022-10-29T00:09:21.787Z,268
2022-10-29T00:11:26.169Z,310
2022-10-29T00:12:03.441Z,326
2022-10-29T00:12:15.562Z,313
2022-10-29T00:12:44.349Z,320
2022-10-29T00:13:15.234Z,278
2022-10-29T00:13:47.369Z,321
2022-10-29T00:14:17.175Z,293
2022-10-29T00:14:48.818Z,299
2022-10-29T00:15:19.949Z,313
2022-10-29T00:15:50.340Z,281
2022-10-29T00:16:22.763Z,290
2022-10-29T00:16:53.944Z,355
2022-10-29T00:17:24.571Z,309
2022-10-29T00:17:55.326Z,343
2022-10-29T00:18:26.383Z,327
2022-10-29T00:18:56.362Z,319
2022-10-29T00:19:27.204Z,314
2022-10-29T00:19:58.361Z,347
2022-10-29T00:20:29.189Z,331
2022-10-29T00:21:09.781Z,317
2022-10-29T00:21:34.791Z,323
2022-10-29T00:22:07.117Z,325
2022-10-29T00:22:34.913Z,339
2022-10-29T00:23:06.189Z,338
2022-10-29T00:23:37.325Z,333
2022-10-29T00:24:07.582Z,288
2022-10-29T00:24:37.470Z,317
2022-10-29T00:25:09.253Z,312
2022-10-29T00:25:39.064Z,307
2022-10-29T00:26:10.182Z,288
2022-10-29T00:26:43.199Z,294
2022-10-29T00:27:14.444Z,309
2022-10-29T00:27:46.973Z,309
2022-10-29T00:28:15.857Z,274
2022-10-29T00:28:46.186Z,270
2022-10-29T00:29:20.105Z,294
2022-10-29T00:29:47.638Z,286
2022-10-29T00:30:19.480Z,241
2022-10-29T00:30:50.511Z,330
2022-10-29T00:31:21.816Z,287
2022-10-29T00:31:53.164Z,292
2022-10-29T00:32:25.319Z,287
2022-10-29T00:32:55.855Z,270
2022-10-29T00:33:27.152Z,344
2022-10-29T00:33:55.816Z,282
2022-10-29T00:34:26.754Z,333
2022-10-29T00:34:57.755Z,308
2022-10-29T00:35:28.128Z,334
2022-10-29T00:35:59.162Z,329
2022-10-29T00:36:30.285Z,328
2022-10-29T00:37:02.891Z,330
2022-10-29T00:37:35.004Z,320
2022-10-29T00:38:04.942Z,307
2022-10-29T00:38:35.011Z,332
2022-10-29T00:39:05.260Z,340
2022-10-29T00:39:36.563Z,332
2022-10-29T00:40:07.925Z,284
2022-10-29T00:40:38.856Z,295
2022-10-29T00:41:09.300Z,233
2022-10-29T00:41:40.776Z,254
2022-10-29T00:42:13.858Z,348
2022-10-29T00:42:44.371Z,349
2022-10-29T00:43:15.042Z,350
2022-10-29T00:43:45.473Z,9
2022-10-29T00:44:16.647Z,5
2022-10-29T00:44:46.082Z,23
2022-10-29T00:45:18.558Z,24
2022-10-29T00:45:54.831Z,13
2022-10-29T00:46:22.928Z,13
2022-10-29T00:46:53.301Z,348
2022-10-29T00:47:23.483Z,8
2022-10-29T00:47:54.418Z,49
2022-10-29T00:48:30.554Z,4
2022-10-29T00:48:55.961Z,4
2022-10-29T00:50:00.550Z,4
2022-10-29T00:50:28.443Z,4
2022-10-29T00:51:16.421Z,21
2022-10-29T00:51:47.288Z,7
2022-10-29T00:52:01.064Z,342
2022-10-29T00:52:34.431Z,348
2022-10-29T00:53:04.920Z,348
2022-10-29T00:53:35.198Z,354
2022-10-29T00:54:05.312Z,355
2022-10-29T00:54:36.339Z,355
2022-10-29T00:55:07.316Z,355
2022-10-29T00:55:39.232Z,355
2022-10-29T00:56:08.576Z,355
2022-10-29T00:56:40.277Z,355
2022-10-29T00:57:14.441Z,355
2022-10-29T00:57:43.742Z,355
2022-10-29T00:58:14.188Z,355
2022-10-29T00:58:45.678Z,355
2022-10-29T00:59:20.802Z,355
2022-10-29T00:59:46.707Z,355
2022-10-29T01:00:18.815Z,355
2022-10-29T01:00:47.605Z,355
2022-10-29T01:01:20.194Z,355
2022-10-29T01:01:56.412Z,355
2022-10-29T01:02:20.974Z,355
2022-10-29T01:03:34.557Z,355
2022-10-29T01:03:54.377Z,355
2022-10-29T01:04:35.654Z,355
2022-10-29T01:04:56.158Z,355
2022-10-29T01:05:27.642Z,355
2022-10-29T01:05:57.468Z,355
2022-10-29T01:06:28.959Z,355
2022-10-29T01:06:59.661Z,355
2022-10-29T01:07:30.414Z,355
2022-10-29T01:08:02.894Z,355
2022-10-29T01:08:34.366Z,355
2022-10-29T01:09:22.631Z,351
2022-10-29T01:09:35.600Z,351
2022-10-29T01:10:37.114Z,355
2022-10-29T01:11:08.707Z,348
2022-10-29T01:12:11.564Z,351
2022-10-29T01:13:25.089Z,351
2022-10-29T01:13:45.050Z,349
2022-10-29T01:14:15.893Z,350
2022-10-29T01:14:46.439Z,356
2022-10-29T01:15:16.516Z,355
2022-10-29T01:15:46.485Z,355
2022-10-29T01:16:17.813Z,358
2022-10-29T01:16:48.853Z,357
2022-10-29T01:17:19.701Z,348
2022-10-29T01:17:51.517Z,338
2022-10-29T01:18:22.213Z,342
2022-10-29T01:18:53.808Z,312
2022-10-29T01:19:25.539Z,286
2022-10-29T01:19:55.749Z,341
2022-10-29T01:20:28.700Z,287
2022-10-29T01:20:57.335Z,322
2022-10-29T01:21:27.676Z,350
2022-10-29T01:21:59.035Z,322
2022-10-29T01:22:29.728Z,342
2022-10-29T01:23:01.317Z,344
2022-10-29T01:23:31.699Z,343
2022-10-29T01:24:03.400Z,349
2022-10-29T01:24:51.324Z,349
2022-10-29T01:25:04.911Z,335
2022-10-29T01:25:35.329Z,344
2022-10-29T01:26:07.397Z,343
2022-10-29T01:26:38.808Z,332
2022-10-29T01:27:08.641Z,337
2022-10-29T01:27:39.133Z,344
2022-10-29T01:28:10.629Z,347
2022-10-29T01:28:41.471Z,343
2022-10-29T01:29:12.505Z,345
2022-10-29T01:29:43.504Z,345
2022-10-29T01:30:17.403Z,343
2022-10-29T01:30:53.157Z,351
2022-10-29T01:31:17.048Z,351
2022-10-29T01:31:49.637Z,350
2022-10-29T01:32:19.346Z,341
2022-10-29T01:32:50.052Z,345
2022-10-29T01:33:20.664Z,342
2022-10-29T01:33:51.500Z,339
2022-10-29T01:34:22.184Z,346
2022-10-29T01:34:53.397Z,347
2022-10-29T01:35:24.431Z,347
2022-10-29T01:35:55.720Z,347
2022-10-29T01:36:28.101Z,347
2022-10-29T01:36:58.907Z,347
2022-10-29T01:37:29.737Z,347
2022-10-29T01:37:59.887Z,347
2022-10-29T01:38:30.637Z,347
2022-10-29T01:39:02.022Z,347
2022-10-29T01:39:32.385Z,347
2022-10-29T01:40:03.405Z,347
2022-10-29T01:40:34.362Z,347
2022-10-29T01:41:05.459Z,347
2022-10-29T01:41:36.367Z,347
2022-10-29T01:42:25.199Z,347
2022-10-29T01:42:40.907Z,348
2022-10-29T01:43:09.804Z,347
2022-10-29T01:43:41.226Z,348
2022-10-29T01:44:11.870Z,348
2022-10-29T01:44:42.297Z,348
2022-10-29T01:45:13.643Z,348
2022-10-29T01:45:44.446Z,348
2022-10-29T01:46:15.506Z,348
2022-10-29T01:46:47.663Z,348
2022-10-29T01:47:18.510Z,348
2022-10-29T01:47:49.546Z,348
2022-10-29T01:48:20.035Z,348
2022-10-29T01:48:51.576Z,347
2022-10-29T01:49:21.799Z,347
2022-10-29T01:49:52.590Z,347
2022-10-29T01:50:24.288Z,347
2022-10-29T01:50:54.225Z,347
2022-10-29T01:51:26.967Z,347
2022-10-29T01:52:13.691Z,348
2022-10-29T01:52:29.675Z,348
2022-10-29T01:52:59.002Z,348
2022-10-29T01:53:29.959Z,348
2022-10-29T01:54:01.878Z,347
2022-10-29T01:54:41.823Z,347
2022-10-29T01:55:02.883Z,348
2022-10-29T01:55:33.497Z,347
2022-10-29T01:56:04.475Z,347
2022-10-29T01:56:35.211Z,348
2022-10-29T01:57:07.748Z,348
2022-10-29T01:57:38.980Z,347
2022-10-29T01:58:10.197Z,347
2022-10-29T01:58:40.409Z,347
2022-10-29T01:59:18.287Z,347
2022-10-29T01:59:51.471Z,347
2022-10-29T02:00:13.939Z,347
2022-10-29T02:00:43.433Z,347
2022-10-29T02:01:14.741Z,347
2022-10-29T02:01:45.202Z,347
2022-10-29T02:02:18.555Z,347
2022-10-29T02:02:48.708Z,347
2022-10-29T02:03:19.221Z,347
2022-10-29T02:03:49.563Z,347
2022-10-29T02:04:20.980Z,347
2022-10-29T02:04:51.857Z,347
2022-10-29T02:05:22.174Z,347
2022-10-29T02:05:53.688Z,347
2022-10-29T02:06:24.680Z,347
2022-10-29T02:06:59.827Z,348
2022-10-29T02:07:26.639Z,347
2022-10-29T02:07:58.056Z,347
2022-10-29T02:08:29.110Z,347
2022-10-29T02:08:59.990Z,347
2022-10-29T02:09:32.321Z,347
2022-10-29T02:10:01.865Z,347
2022-10-29T02:10:32.412Z,347
2022-10-29T02:11:03.521Z,347
2022-10-29T02:11:52.157Z,348
2022-10-29T02:12:06.203Z,348
2022-10-29T02:12:38.766Z,348
2022-10-29T02:13:08.802Z,348
2022-10-29T02:13:39.719Z,348
2022-10-29T02:14:09.931Z,348
2022-10-29T02:14:41.008Z,348
2022-10-29T02:15:12.409Z,348
2022-10-29T02:15:42.758Z,348
2022-10-29T02:16:13.660Z,348
2022-10-29T02:16:44.769Z,348
2022-10-29T02:17:16.101Z,348
2022-10-29T02:18:04.065Z,348
2022-10-29T02:18:18.717Z,348
2022-10-29T02:18:49.826Z,348
2022-10-29T02:19:19.742Z,348
2022-10-29T02:19:51.339Z,348
2022-10-29T02:20:22.686Z,348
2022-10-29T02:20:52.521Z,348
2022-10-29T02:21:23.506Z,348
2022-10-29T02:21:54.450Z,348
2022-10-29T02:22:25.549Z,348
2022-10-29T02:22:59.062Z,348
2022-10-29T02:23:28.652Z,349
2022-10-29T02:24:00.243Z,349
2022-10-29T02:24:30.124Z,349
2022-10-29T02:25:00.857Z,349
2022-10-29T02:25:31.658Z,349
2022-10-29T02:26:02.638Z,349
2022-10-29T02:26:33.580Z,349
2022-10-29T02:27:04.950Z,349
2022-10-29T02:27:35.836Z,349
2022-10-29T02:28:38.728Z,349
2022-10-29T02:29:10.038Z,349
2022-10-29T02:29:39.951Z,349
2022-10-29T02:30:13.115Z,349
2022-10-29T02:30:41.519Z,349
2022-10-29T02:31:12.899Z,349
2022-10-29T02:31:43.581Z,349
2022-10-29T02:32:15.241Z,349
2022-10-29T02:32:45.701Z,349
2022-10-29T02:33:16.489Z,349
2022-10-29T02:33:48.569Z,349
2022-10-29T02:34:19.463Z,349
2022-10-29T02:34:49.544Z,349
2022-10-29T02:35:21.096Z,349
2022-10-29T02:35:51.505Z,349
2022-10-29T02:36:22.260Z,349
2022-10-29T02:36:53.919Z,349
2022-10-29T02:37:24.356Z,349
2022-10-29T02:37:55.897Z,349
2022-10-29T02:38:26.575Z,349
2022-10-29T02:38:59.632Z,349
2022-10-29T02:39:29.707Z,349
2022-10-29T02:40:00.011Z,349
2022-10-29T02:40:30.978Z,349
2022-10-29T02:41:01.975Z,349
2022-10-29T02:42:03.651Z,349
2022-10-29T02:43:06.074Z,349
2022-10-29T02:43:36.600Z,349
2022-10-29T02:44:09.183Z,349
2022-10-29T02:44:40.700Z,349
2022-10-29T02:45:11.713Z,349
2022-10-29T02:45:41.006Z,349
2022-10-29T02:46:12.075Z,349
2022-10-29T02:46:42.832Z,349
2022-10-29T02:47:31.426Z,349
2022-10-29T02:47:44.615Z,349
2022-10-29T02:48:15.740Z,349
2022-10-29T02:48:46.455Z,349
2022-10-29T02:49:18.856Z,349
2022-10-29T02:49:49.736Z,349
2022-10-29T02:50:21.059Z,349
2022-10-29T02:50:51.004Z,349
2022-10-29T02:51:22.201Z,349
2022-10-29T02:51:52.549Z,349
2022-10-29T02:52:23.619Z,349
2022-10-29T02:52:54.850Z,349
2022-10-29T02:53:25.668Z,349
2022-10-29T02:53:56.577Z,349
2022-10-29T02:54:30.900Z,349
2022-10-29T02:55:00.787Z,349
2022-10-29T02:55:31.994Z,349
2022-10-29T02:56:01.644Z,349
2022-10-29T02:56:33.022Z,349
2022-10-29T02:57:02.911Z,349
2022-10-29T02:57:34.383Z,349
2022-10-29T02:58:06.028Z,349
2022-10-29T02:58:36.014Z,349
2022-10-29T02:59:10.929Z,349
2022-10-29T03:00:09.573Z,349
2022-10-29T03:00:41.252Z,349
2022-10-29T03:01:11.246Z,349
2022-10-29T03:01:42.532Z,349
2022-10-29T03:02:12.878Z,349
2022-10-29T03:02:44.220Z,349
2022-10-29T03:03:14.646Z,349
2022-10-29T03:04:03.211Z,349
2022-10-29T03:04:16.778Z,350
2022-10-29T03:04:48.814Z,349
2022-10-29T03:05:20.504Z,350
2022-10-29T03:05:50.395Z,350
2022-10-29T03:06:21.014Z,350
2022-10-29T03:06:52.640Z,350
2022-10-29T03:07:22.775Z,350
2022-10-29T03:07:53.630Z,350
2022-10-29T03:08:25.307Z,350
2022-10-29T03:08:56.007Z,350
2022-10-29T03:09:57.958Z,350
2022-10-29T03:11:00.541Z,350
2022-10-29T03:11:31.322Z,350
2022-10-29T03:12:02.410Z,350
2022-10-29T03:12:32.930Z,350
2022-10-29T03:13:04.271Z,350
2022-10-29T03:13:34.635Z,350
2022-10-29T03:14:05.995Z,350
2022-10-29T03:14:36.799Z,350
2022-10-29T03:15:09.577Z,350
2022-10-29T03:15:40.285Z,350
2022-10-29T03:16:11.692Z,350
2022-10-29T03:16:42.125Z,351
2022-10-29T03:17:12.638Z,351
2022-10-29T03:17:43.686Z,351
2022-10-29T03:18:13.911Z,351
2022-10-29T03:18:44.971Z,351
2022-10-29T03:19:33.603Z,351
2022-10-29T03:19:46.652Z,351
2022-10-29T03:20:17.677Z,351
2022-10-29T03:20:50.132Z,351
2022-10-29T03:21:20.902Z,351
2022-10-29T03:21:51.416Z,351
2022-10-29T03:22:22.301Z,351
2022-10-29T03:22:52.823Z,3
2022-10-29T03:23:23.804Z,26
2022-10-29T03:23:55.141Z,28
2022-10-29T03:24:43.216Z,29
2022-10-29T03:24:57.532Z,30
2022-10-29T03:25:27.892Z,31
2022-10-29T03:26:00.923Z,34
2022-10-29T03:26:31.524Z,35
2022-10-29T03:27:02.372Z,35
2022-10-29T03:27:32.650Z,35
2022-10-29T03:28:03.076Z,37
2022-10-29T03:28:51.604Z,39
2022-10-29T03:29:05.003Z,38
2022-10-29T03:29:36.043Z,38
2022-10-29T03:30:08.040Z,38
2022-10-29T03:30:37.902Z,39
2022-10-29T03:31:11.061Z,39
2022-10-29T03:31:41.380Z,39
2022-10-29T03:32:12.171Z,39
2022-10-29T03:32:42.427Z,39
2022-10-29T03:33:12.806Z,39
2022-10-29T03:33:44.415Z,39
2022-10-29T03:34:15.097Z,38
2022-10-29T03:34:45.895Z,38
2022-10-29T03:35:19.605Z,39
2022-10-29T03:35:47.981Z,39
2022-10-29T03:36:20.273Z,38
2022-10-29T03:36:51.527Z,38
2022-10-29T03:37:38.211Z,38
2022-10-29T03:37:53.001Z,39
2022-10-29T03:38:23.042Z,39
2022-10-29T03:38:53.648Z,38
2022-10-29T03:39:25.087Z,38
2022-10-29T03:39:55.876Z,38
2022-10-29T03:40:27.961Z,38
2022-10-29T03:41:30.534Z,38
2022-10-29T03:42:02.399Z,38
2022-10-29T03:42:31.662Z,38
2022-10-29T03:43:02.109Z,38
2022-10-29T03:43:33.039Z,38
2022-10-29T03:44:04.158Z,38
2022-10-29T03:44:34.844Z,38
2022-10-29T03:45:07.539Z,38
2022-10-29T03:45:36.821Z,38
2022-10-29T03:46:08.171Z,38
2022-10-29T03:46:40.709Z,38
2022-10-29T03:47:12.134Z,38
2022-10-29T03:47:41.266Z,38
2022-10-29T03:48:12.013Z,38
2022-10-29T03:48:43.079Z,38
2022-10-29T03:49:13.870Z,39
2022-10-29T03:49:45.140Z,38
2022-10-29T03:50:16.380Z,39
2022-10-29T03:50:46.988Z,39
2022-10-29T03:51:18.017Z,39
2022-10-29T03:51:51.057Z,39
2022-10-29T03:52:21.142Z,39
2022-10-29T03:52:51.972Z,38
2022-10-29T03:53:54.004Z,38
2022-10-29T03:54:42.257Z,38
2022-10-29T03:55:13.015Z,38
2022-10-29T03:55:25.990Z,39
2022-10-29T03:55:57.121Z,39
2022-10-29T03:56:28.862Z,38
2022-10-29T03:57:01.063Z,38
2022-10-29T03:57:33.244Z,38
2022-10-29T03:58:02.164Z,38
2022-10-29T03:58:33.350Z,38
2022-10-29T03:59:03.687Z,39
2022-10-29T03:59:34.186Z,39
2022-10-29T04:00:05.515Z,38
2022-10-29T04:00:36.831Z,38
2022-10-29T04:01:07.891Z,38
2022-10-29T04:01:38.729Z,38
2022-10-29T04:02:09.506Z,38
2022-10-29T04:02:40.257Z,38
2022-10-29T04:03:11.940Z,38
2022-10-29T04:03:42.557Z,38
2022-10-29T04:04:12.924Z,38
2022-10-29T04:04:44.294Z,38
2022-10-29T04:05:15.142Z,38
2022-10-29T04:05:45.988Z,38
2022-10-29T04:06:16.812Z,38
2022-10-29T04:06:50.062Z,38
2022-10-29T04:07:19.167Z,38
2022-10-29T04:07:50.612Z,38
2022-10-29T04:08:22.185Z,38
2022-10-29T04:08:52.684Z,38
2022-10-29T04:09:22.967Z,38
2022-10-29T04:09:54.197Z,39
2022-10-29T04:10:25.876Z,38
2022-10-29T04:10:56.004Z,39
2022-10-29T04:11:28.052Z,39
2022-10-29T04:11:58.888Z,38
2022-10-29T04:12:30.194Z,39
2022-10-29T04:13:00.492Z,39
2022-10-29T04:13:31.433Z,39
2022-10-29T04:14:02.568Z,38
2022-10-29T04:14:33.933Z,39
2022-10-29T04:15:04.861Z,39
2022-10-29T04:15:35.478Z,39
2022-10-29T04:16:06.083Z,39
2022-10-29T04:16:39.302Z,39
2022-10-29T04:17:08.740Z,39
2022-10-29T04:17:39.564Z,39
2022-10-29T04:18:10.880Z,39
2022-10-29T04:19:00.515Z,39
2022-10-29T04:19:12.562Z,39
2022-10-29T04:19:43.472Z,39
2022-10-29T04:20:31.778Z,39
2022-10-29T04:28:42.883Z,39
2022-10-29T04:29:02.616Z,39
2022-10-29T04:29:32.702Z,39
2022-10-29T04:30:05.306Z,39
2022-10-29T04:30:34.137Z,39
2022-10-29T04:31:05.694Z,39
2022-10-29T04:31:35.878Z,39
2022-10-29T04:32:08.785Z,39
2022-10-29T04:32:40.549Z,39
2022-10-29T04:33:10.012Z,39
2022-10-29T04:33:40.555Z,39
2022-10-29T04:34:11.107Z,39
2022-10-29T04:34:42.720Z,39
2022-10-29T04:35:13.725Z,39
2022-10-29T04:35:44.119Z,39
2022-10-29T04:36:15.452Z,39
2022-10-29T04:36:46.239Z,39
2022-10-29T04:37:17.967Z,39
2022-10-29T04:37:49.813Z,39
2022-10-29T04:38:19.322Z,39
2022-10-29T04:38:50.231Z,39
2022-10-29T04:39:23.387Z,39
2022-10-29T04:39:52.717Z,39
2022-10-29T04:40:24.377Z,39
2022-10-29T04:40:54.270Z,39
2022-10-29T04:41:25.458Z,39
2022-10-29T04:42:28.275Z,39
2022-10-29T04:42:59.789Z,39
2022-10-29T04:43:29.947Z,39
2022-10-29T04:44:01.229Z,39
2022-10-29T04:44:31.195Z,39
2022-10-29T04:45:03.093Z,39
2022-10-29T04:45:34.001Z,39
2022-10-29T04:46:04.559Z,39
2022-10-29T04:46:34.909Z,39
2022-10-29T04:47:07.437Z,39
2022-10-29T04:47:39.314Z,39
2022-10-29T04:48:10.328Z,39
2022-10-29T04:48:41.921Z,39
2022-10-29T04:49:10.592Z,39
2022-10-29T04:49:41.547Z,39
2022-10-29T04:50:12.985Z,39
2022-10-29T04:50:43.744Z,39
2022-10-29T04:51:14.336Z,39
2022-10-29T04:51:45.373Z,39
2022-10-29T04:52:16.544Z,39
2022-10-29T04:52:48.529Z,39
2022-10-29T04:53:19.334Z,39
2022-10-29T04:53:49.681Z,39
2022-10-29T04:54:20.071Z,39
2022-10-29T04:54:51.408Z,39
2022-10-29T04:55:22.943Z,39
2022-10-29T04:55:53.577Z,39
2022-10-29T04:56:24.448Z,39
2022-10-29T04:56:55.058Z,39
2022-10-29T04:57:27.243Z,39
2022-10-29T04:57:59.607Z,39
2022-10-29T04:58:29.909Z,39
2022-10-29T04:58:59.791Z,39
2022-10-29T04:59:30.353Z,39
2022-10-29T05:00:02.553Z,39
2022-10-29T05:00:33.337Z,39
2022-10-29T05:01:03.460Z,39
2022-10-29T05:02:05.367Z,39
2022-10-29T05:02:36.029Z,39
2022-10-29T05:03:07.164Z,39
2022-10-29T05:03:39.466Z,39
2022-10-29T05:04:09.635Z,39
2022-10-29T05:04:40.597Z,39
2022-10-29T05:05:11.692Z,39
2022-10-29T05:05:42.500Z,39
2022-10-29T05:06:22.633Z,39
2022-10-29T05:06:44.154Z,39
2022-10-29T05:07:15.183Z,39
2022-10-29T05:07:46.308Z,39
2022-10-29T05:08:18.201Z,39
2022-10-29T05:08:49.849Z,39
2022-10-29T05:09:19.545Z,39
2022-10-29T05:09:50.423Z,39
2022-10-29T05:10:21.672Z,39
2022-10-29T05:10:52.622Z,39
2022-10-29T05:11:23.295Z,39
2022-10-29T05:11:54.359Z,39
2022-10-29T05:12:25.422Z,39
2022-10-29T05:12:56.629Z,39
2022-10-29T05:13:27.265Z,39
2022-10-29T05:13:59.655Z,39
2022-10-29T05:14:29.847Z,39
2022-10-29T05:15:00.119Z,39
2022-10-29T05:15:31.310Z,39
2022-10-29T05:16:21.503Z,39
2022-10-29T05:16:38.194Z,39
2022-10-29T05:17:04.409Z,39
2022-10-29T05:17:35.057Z,39
2022-10-29T05:18:06.199Z,39
2022-10-29T05:18:37.601Z,39
2022-10-29T05:19:09.504Z,39
2022-10-29T05:19:40.014Z,39
2022-10-29T05:20:10.776Z,39
2022-10-29T05:20:41.078Z,39
2022-10-29T05:21:12.219Z,39
2022-10-29T05:21:43.187Z,39
2022-10-29T05:22:45.651Z,39
2022-10-29T05:23:16.627Z,39
2022-10-29T05:23:47.556Z,39
2022-10-29T05:24:18.616Z,39
2022-10-29T05:24:49.984Z,39
2022-10-29T05:25:21.117Z,39
2022-10-29T05:25:51.269Z,39
2022-10-29T05:26:23.127Z,41
2022-10-29T05:27:24.248Z,40
2022-10-29T05:27:55.555Z,40
2022-10-29T05:28:26.251Z,41
2022-10-29T05:28:57.533Z,41
2022-10-29T05:29:29.776Z,41
2022-10-29T05:29:59.586Z,41
2022-10-29T05:30:31.026Z,41
2022-10-29T05:31:01.456Z,41
2022-10-29T05:31:33.025Z,41
2022-10-29T05:32:04.650Z,41
2022-10-29T05:33:06.378Z,41
2022-10-29T05:33:55.656Z,41
2022-10-29T05:34:07.180Z,41
2022-10-29T05:34:44.358Z,41
2022-10-29T05:35:09.946Z,41
2022-10-29T05:35:40.998Z,41
2022-10-29T05:36:11.259Z,41
2022-10-29T05:36:42.640Z,41
2022-10-29T05:37:13.310Z,41
2022-10-29T05:37:44.365Z,41
2022-10-29T05:38:15.922Z,41
2022-10-29T05:38:46.418Z,41
2022-10-29T05:39:17.527Z,41
2022-10-29T05:39:49.905Z,41
2022-10-29T05:40:20.851Z,41
2022-10-29T05:40:50.438Z,41
2022-10-29T05:41:21.878Z,41
2022-10-29T05:41:53.089Z,41
2022-10-29T05:42:23.556Z,41
2022-10-29T05:43:12.208Z,41
2022-10-29T05:43:25.238Z,41
2022-10-29T05:43:57.084Z,41
2022-10-29T05:44:27.533Z,41
2022-10-29T05:45:30.343Z,41
2022-10-29T05:46:01.114Z,41
2022-10-29T05:46:33.325Z,41
2022-10-29T05:47:02.752Z,41
2022-10-29T05:47:33.407Z,41
2022-10-29T05:48:04.615Z,41
2022-10-29T05:48:35.502Z,41
2022-10-29T05:49:06.560Z,41
2022-10-29T05:49:37.302Z,41
2022-10-29T05:50:10.364Z,41
2022-10-29T05:51:11.364Z,41
2022-10-29T05:51:41.640Z,41
2022-10-29T05:52:12.950Z,41
2022-10-29T05:52:43.465Z,41
2022-10-29T05:53:14.304Z,41
2022-10-29T05:53:50.748Z,41
2022-10-29T05:54:16.319Z,41
2022-10-29T05:54:47.376Z,41
2022-10-29T05:55:50.632Z,41
2022-10-29T05:56:20.904Z,41
2022-10-29T05:57:32.982Z,41
2022-10-29T05:57:53.392Z,41
2022-10-29T05:58:55.565Z,41
2022-10-29T05:59:31.087Z,41
2022-10-29T05:59:59.309Z,41
2022-10-29T06:00:36.548Z,41
2022-10-29T06:00:59.516Z,41
2022-10-29T06:01:31.653Z,41
2022-10-29T06:02:01.863Z,41
2022-10-29T06:02:33.283Z,41
2022-10-29T06:03:03.961Z,41
2022-10-29T06:03:35.502Z,41
2022-10-29T06:04:06.502Z,41
2022-10-29T06:04:36.602Z,41
2022-10-29T06:05:08.674Z,41
2022-10-29T06:05:39.174Z,41
2022-10-29T06:06:10.709Z,41
2022-10-29T06:06:40.895Z,41
2022-10-29T06:07:12.446Z,41
2022-10-29T06:07:43.399Z,41
2022-10-29T06:08:13.808Z,41
2022-10-29T06:09:16.169Z,41
2022-10-29T06:09:46.929Z,41
2022-10-29T06:10:18.417Z,41
2022-10-29T06:10:50.048Z,41
2022-10-29T06:11:21.562Z,41
2022-10-29T06:11:50.957Z,41
2022-10-29T06:12:21.540Z,41
2022-10-29T06:12:53.236Z,41
2022-10-29T06:13:23.668Z,41
2022-10-29T06:13:54.780Z,41
2022-10-29T06:14:26.285Z,41
2022-10-29T06:14:56.767Z,41
2022-10-29T06:16:00.803Z,41
2022-10-29T06:16:31.979Z,41
2022-10-29T06:17:02.515Z,41
2022-10-29T06:17:31.907Z,41
2022-10-29T06:18:03.030Z,41
2022-10-29T06:18:33.876Z,41
2022-10-29T06:19:05.323Z,41
2022-10-29T06:19:35.946Z,41
2022-10-29T06:20:07.422Z,41
2022-10-29T06:20:38.010Z,41
2022-10-29T06:21:09.921Z,41
2022-10-29T06:21:40.846Z,41
2022-10-29T06:22:12.178Z,41
2022-10-29T06:22:42.720Z,41
2022-10-29T06:23:13.287Z,41
2022-10-29T06:23:44.200Z,41
2022-10-29T06:24:15.446Z,41
2022-10-29T06:24:46.002Z,41
2022-10-29T06:25:17.596Z,41
2022-10-29T06:25:47.755Z,41
2022-10-29T06:26:20.634Z,41
2022-10-29T06:26:50.716Z,41
2022-10-29T06:27:22.656Z,41
2022-10-29T06:27:52.545Z,41
2022-10-29T06:28:23.059Z,40
2022-10-29T06:28:53.800Z,40
2022-10-29T06:29:25.110Z,40
2022-10-29T06:29:55.831Z,40
2022-10-29T06:30:28.936Z,40
2022-10-29T06:30:57.414Z,40
2022-10-29T06:31:30.906Z,40
2022-10-29T06:32:01.496Z,40
2022-10-29T06:32:32.781Z,40
2022-10-29T06:33:02.672Z,40
2022-10-29T06:33:33.206Z,40
2022-10-29T06:34:03.680Z,40
2022-10-29T06:34:40.084Z,40
2022-10-29T06:35:07.391Z,40
2022-10-29T06:35:37.366Z,40
2022-10-29T06:36:09.807Z,40
2022-10-29T06:36:39.914Z,40
2022-10-29T06:37:11.525Z,40
2022-10-29T06:37:42.584Z,40
2022-10-29T06:38:12.735Z,40
2022-10-29T06:38:43.266Z,40
2022-10-29T06:39:14.114Z,40
2022-10-29T06:39:45.026Z,40
2022-10-29T06:40:16.400Z,40
2022-10-29T06:40:47.731Z,40
2022-10-29T06:41:17.696Z,40
2022-10-29T06:41:49.408Z,40
2022-10-29T06:42:32.800Z,40
2022-10-29T06:42:50.989Z,40
2022-10-29T06:43:22.780Z,40
2022-10-29T06:43:53.005Z,40
2022-10-29T06:44:23.793Z,40
2022-10-29T06:44:54.831Z,40
2022-10-29T06:45:26.096Z,40
2022-10-29T06:46:13.856Z,40
2022-10-29T06:46:27.923Z,40
2022-10-29T06:46:58.829Z,40
2022-10-29T06:47:31.649Z,40
2022-10-29T06:48:02.611Z,40
2022-10-29T06:48:32.218Z,40
2022-10-29T06:49:03.516Z,40
2022-10-29T06:49:34.231Z,40
2022-10-29T06:50:05.742Z,40
2022-10-29T06:50:36.951Z,40
2022-10-29T06:51:37.651Z,40
2022-10-29T06:52:11.276Z,40
2022-10-29T06:52:42.426Z,40
2022-10-29T06:53:12.598Z,40
2022-10-29T06:53:41.648Z,40
2022-10-29T06:54:12.994Z,40
2022-10-29T06:55:20.295Z,40
2022-10-29T06:55:45.662Z,40
2022-10-29T06:56:16.774Z,40
2022-10-29T06:56:48.015Z,40
2022-10-29T06:57:20.235Z,40
2022-10-29T06:57:51.471Z,40
2022-10-29T06:58:21.354Z,40
2022-10-29T06:58:52.504Z,40
2022-10-29T06:59:23.111Z,40
2022-10-29T06:59:53.641Z,40
2022-10-29T07:00:26.144Z,40
2022-10-29T07:00:55.606Z,40
2022-10-29T07:01:57.881Z,40
2022-10-29T07:02:28.957Z,40
2022-10-29T07:03:01.648Z,40
2022-10-29T07:03:47.959Z,40
2022-10-29T07:04:01.869Z,40
2022-10-29T07:04:32.839Z,40
2022-10-29T07:05:03.921Z,40
2022-10-29T07:05:34.849Z,40
2022-10-29T07:06:05.759Z,40
2022-10-29T07:06:37.150Z,40
2022-10-29T07:07:07.760Z,40
2022-10-29T07:08:11.219Z,40
2022-10-29T07:08:41.430Z,40
2022-10-29T07:09:12.195Z,40
2022-10-29T07:09:43.432Z,40
2022-10-29T07:10:14.746Z,40
2022-10-29T07:10:59.984Z,40
2022-10-29T07:11:16.037Z,40
2022-10-29T07:11:46.678Z,40
2022-10-29T07:12:17.815Z,40
2022-10-29T07:12:49.734Z,40
2022-10-29T07:13:21.581Z,40
2022-10-29T07:13:51.756Z,40
2022-10-29T07:14:23.285Z,40
2022-10-29T07:14:53.329Z,40
2022-10-29T07:15:27.490Z,40
2022-10-29T07:15:54.883Z,40
2022-10-29T07:16:26.015Z,40
2022-10-29T07:16:56.836Z,40
2022-10-29T07:17:28.043Z,40
2022-10-29T07:18:00.448Z,40
2022-10-29T07:18:31.954Z,40
2022-10-29T07:19:02.859Z,40
2022-10-29T07:19:32.154Z,40
2022-10-29T07:20:04.057Z,40
2022-10-29T07:20:34.162Z,40
2022-10-29T07:21:04.910Z,40
2022-10-29T07:21:36.089Z,40
2022-10-29T07:22:07.112Z,40
2022-10-29T07:22:38.015Z,40
2022-10-29T07:23:08.824Z,40
2022-10-29T07:23:41.498Z,40
2022-10-29T07:24:13.452Z,40
2022-10-29T07:24:42.740Z,40
2022-10-29T07:25:13.287Z,40
2022-10-29T07:25:43.873Z,40
2022-10-29T07:26:14.927Z,40
2022-10-29T07:26:46.874Z,40
2022-10-29T07:27:17.132Z,40
2022-10-29T07:27:48.641Z,40
2022-10-29T07:28:19.101Z,40
2022-10-29T07:28:51.936Z,40
2022-10-29T07:29:22.707Z,40
2022-10-29T07:29:53.016Z,40
2022-10-29T07:30:24.385Z,40
2022-10-29T07:30:54.293Z,40
2022-10-29T07:31:25.124Z,40
2022-10-29T07:31:55.866Z,40
2022-10-29T07:32:27.304Z,40
2022-10-29T07:32:57.974Z,40
2022-10-29T07:33:28.967Z,40
2022-10-29T07:34:32.019Z,40
2022-10-29T07:35:02.939Z,40
2022-10-29T07:35:33.376Z,40
2022-10-29T07:36:22.899Z,40
2022-10-29T07:36:35.616Z,40
2022-10-29T07:37:05.777Z,40
2022-10-29T07:37:36.665Z,40
2022-10-29T07:38:10.857Z,40
2022-10-29T07:38:38.907Z,40
2022-10-29T07:39:12.189Z,40
2022-10-29T07:39:42.762Z,40
2022-10-29T07:40:43.768Z,40
2022-10-29T07:41:45.186Z,40
2022-10-29T07:42:16.400Z,40
2022-10-29T07:42:47.181Z,40
2022-10-29T07:43:18.285Z,40
2022-10-29T07:43:49.291Z,40